Time;durP1;ratioP1;P1;durP2;ratioP2;P2;SDS_P1;SDS_P2;PMS_P1;PMS_P2;Temp;Humidity;BMP_temperature;BMP_pressure;BME280_temperature;BME280_humidity;BME280_pressure;Samples;Min_cycle;Max_cycle;Signal;HPM_P1;HPM_P2
2023/03/17 00:00:37;;;;;;;6.20;4.07;;;;;;;;;;4992529;28;20045;-80
2023/03/17 00:03:04;;;;;;;6.22;3.53;;;;;;;;;;5031543;28;20098;-80
2023/03/17 00:05:32;;;;;;;6.88;3.95;;;;;;;;;;5020163;28;20032;-80
2023/03/17 00:08:01;;;;;;;4.78;3.70;;;;;;;;;;5002236;28;20620;-79
2023/03/17 00:10:27;;;;;;;5.07;3.67;;;;;;;;;;5034961;28;20037;-79
2023/03/17 00:12:54;;;;;;;5.93;3.75;;;;;;;;;;5016315;28;20073;-80
2023/03/17 00:15:21;;;;;;;5.43;3.35;;;;;;;;;;5018857;28;20037;-79
2023/03/17 00:17:47;;;;;;;5.30;3.30;;;;;;;;;;5000439;28;20048;-79
2023/03/17 00:20:25;;;;;;;8.75;3.97;;;;;;;;;;5003521;28;20060;-79
2023/03/17 00:22:51;;;;;;;4.60;3.70;;;;;;;;;;5017944;28;20398;-80
2023/03/17 00:25:19;;;;;;;5.25;3.70;;;;;;;;;;5009677;28;20052;-80
2023/03/17 00:27:45;;;;;;;6.05;3.72;;;;;;;;;;5022465;28;20046;-80
2023/03/17 00:30:11;;;;;;;4.95;3.42;;;;;;;;;;4996400;28;21344;-80
2023/03/17 00:32:38;;;;;;;6.22;3.38;;;;;;;;;;5017116;28;20037;-80
2023/03/17 00:35:13;;;;;;;9.50;3.40;;;;;;;;;;5012975;28;20051;-80
2023/03/17 00:37:40;;;;;;;5.00;3.40;;;;;;;;;;5011889;28;22010;-79
2023/03/17 00:40:09;;;;;;;4.80;3.25;;;;;;;;;;4973027;28;20084;-80
2023/03/17 00:42:35;;;;;;;4.38;3.45;;;;;;;;;;4984699;28;20076;-79
2023/03/17 00:45:01;;;;;;;6.25;3.63;;;;;;;;;;5012953;28;20037;-79
2023/03/17 00:47:27;;;;;;;6.97;3.70;;;;;;;;;;4983040;28;20183;-80
2023/03/17 00:49:53;;;;;;;6.63;3.67;;;;;;;;;;4998426;28;20379;-80
2023/03/17 00:52:19;;;;;;;5.97;3.80;;;;;;;;;;5015397;28;20076;-80
2023/03/17 00:54:45;;;;;;;3.80;3.17;;;;;;;;;;5018220;28;20042;-80
2023/03/17 00:57:11;;;;;;;4.78;3.45;;;;;;;;;;5022614;28;20045;-80
2023/03/17 00:59:39;;;;;;;6.68;3.58;;;;;;;;;;4995049;28;23807;-80
2023/03/17 01:02:05;;;;;;;5.55;3.60;;;;;;;;;;5013327;28;20492;-79
2023/03/17 01:04:32;;;;;;;4.25;3.33;;;;;;;;;;5016177;28;20777;-79
2023/03/17 01:06:59;;;;;;;5.75;3.60;;;;;;;;;;5019284;28;20052;-80
2023/03/17 01:09:26;;;;;;;8.50;3.70;;;;;;;;;;5017936;28;20435;-80
2023/03/17 01:11:53;;;;;;;4.30;3.25;;;;;;;;;;4984131;28;20095;-79
2023/03/17 01:14:20;;;;;;;5.60;3.70;;;;;;;;;;5014061;28;20049;-79
2023/03/17 01:16:46;;;;;;;5.45;4.13;;;;;;;;;;5011632;28;20040;-79
2023/03/17 01:19:13;;;;;;;4.32;3.17;;;;;;;;;;5024494;28;20124;-79
2023/03/17 01:21:39;;;;;;;7.00;3.65;;;;;;;;;;5016494;28;20488;-79
2023/03/17 01:24:07;;;;;;;6.03;3.70;;;;;;;;;;5018177;28;20481;-79
2023/03/17 01:26:33;;;;;;;6.00;3.67;;;;;;;;;;5017418;28;20041;-79
2023/03/17 01:28:59;;;;;;;6.07;3.85;;;;;;;;;;5012114;28;20064;-78
2023/03/17 01:31:25;;;;;;;5.68;3.75;;;;;;;;;;5006019;28;20051;-79
2023/03/17 01:33:51;;;;;;;4.22;3.60;;;;;;;;;;5016154;28;20389;-79
2023/03/17 01:36:17;;;;;;;6.97;3.83;;;;;;;;;;5014724;28;20037;-80
2023/03/17 01:38:46;;;;;;;7.43;4.10;;;;;;;;;;4996695;28;20048;-80
2023/03/17 01:41:13;;;;;;;5.40;3.92;;;;;;;;;;5005647;28;20053;-79
2023/03/17 01:43:39;;;;;;;6.93;3.63;;;;;;;;;;5013438;28;20133;-79
2023/03/17 01:46:19;;;;;;;5.55;3.70;;;;;;;;;;5000799;28;20079;-79
2023/03/17 01:48:48;;;;;;;6.35;3.90;;;;;;;;;;5016237;28;20060;-80
2023/03/17 01:51:19;;;;;;;5.47;3.80;;;;;;;;;;5003798;28;20041;-80
2023/03/17 01:53:47;;;;;;;5.28;4.07;;;;;;;;;;5017355;28;20068;-80
2023/03/17 01:56:14;;;;;;;6.78;3.97;;;;;;;;;;5022467;28;20061;-80
2023/03/17 01:58:40;;;;;;;6.55;4.40;;;;;;;;;;5017843;28;20444;-80
2023/03/17 02:01:07;;;;;;;5.53;3.85;;;;;;;;;;5006486;28;20596;-80
2023/03/17 02:03:33;;;;;;;6.18;4.10;;;;;;;;;;5023029;28;20045;-80
2023/03/17 02:06:01;;;;;;;9.15;4.32;;;;;;;;;;5008572;28;21623;-80
2023/03/17 02:08:27;;;;;;;6.30;4.22;;;;;;;;;;5005956;28;20049;-80
2023/03/17 02:10:55;;;;;;;7.72;3.90;;;;;;;;;;4996652;28;20514;-80
2023/03/17 02:13:21;;;;;;;8.23;4.35;;;;;;;;;;5018912;28;20488;-80
2023/03/17 02:15:49;;;;;;;5.65;4.13;;;;;;;;;;4984346;28;20065;-79
2023/03/17 02:18:17;;;;;;;5.80;4.63;;;;;;;;;;5006856;28;20604;-80
2023/03/17 02:20:46;;;;;;;8.90;4.35;;;;;;;;;;5022147;28;22006;-81
2023/03/17 02:23:15;;;;;;;7.68;4.38;;;;;;;;;;5003315;28;20049;-80
2023/03/17 02:25:43;;;;;;;6.60;4.35;;;;;;;;;;5002605;28;20778;-79
2023/03/17 02:28:15;;;;;;;6.80;4.32;;;;;;;;;;5003615;28;20037;-81
2023/03/17 02:30:41;;;;;;;7.20;4.63;;;;;;;;;;5019155;28;20037;-81
2023/03/17 02:33:08;;;;;;;5.65;4.40;;;;;;;;;;4989590;28;20456;-80
2023/03/17 02:35:35;;;;;;;6.15;4.60;;;;;;;;;;5001680;28;20515;-80
2023/03/17 02:38:01;;;;;;;8.15;4.82;;;;;;;;;;4989738;28;20051;-80
2023/03/17 02:40:28;;;;;;;7.60;5.30;;;;;;;;;;5009898;28;20559;-80
2023/03/17 02:42:55;;;;;;;7.32;4.80;;;;;;;;;;5013712;28;20525;-81
2023/03/17 02:45:22;;;;;;;6.95;4.70;;;;;;;;;;4990993;28;22027;-81
2023/03/17 02:47:49;;;;;;;5.82;4.40;;;;;;;;;;5023624;28;20052;-80
2023/03/17 02:50:21;;;;;;;6.55;5.03;;;;;;;;;;5008284;28;20041;-80
2023/03/17 02:52:47;;;;;;;5.00;4.35;;;;;;;;;;5021846;28;20042;-80
2023/03/17 02:55:13;;;;;;;7.22;5.05;;;;;;;;;;4991586;28;20046;-80
2023/03/17 02:57:39;;;;;;;5.82;4.95;;;;;;;;;;5010337;28;20049;-79
2023/03/17 03:00:09;;;;;;;6.35;4.78;;;;;;;;;;5014613;28;20688;-80
2023/03/17 03:02:36;;;;;;;8.20;5.18;;;;;;;;;;5021682;28;20112;-80
2023/03/17 03:05:02;;;;;;;6.93;5.00;;;;;;;;;;5014663;28;20048;-80
2023/03/17 03:07:28;;;;;;;5.57;4.70;;;;;;;;;;5003885;28;20485;-79
2023/03/17 03:09:55;;;;;;;7.25;5.15;;;;;;;;;;5028354;28;20067;-79
2023/03/17 03:12:21;;;;;;;7.25;5.30;;;;;;;;;;5006377;28;20132;-79
2023/03/17 03:14:47;;;;;;;5.55;4.95;;;;;;;;;;5012170;28;20045;-80
2023/03/17 03:17:14;;;;;;;6.35;5.05;;;;;;;;;;5010871;28;20099;-80
2023/03/17 03:19:41;;;;;;;8.02;4.90;;;;;;;;;;4984754;28;20056;-80
2023/03/17 03:22:07;;;;;;;9.20;5.55;;;;;;;;;;5007437;28;20125;-80
2023/03/17 03:24:34;;;;;;;7.20;5.00;;;;;;;;;;4987822;28;20037;-80
2023/03/17 03:27:00;;;;;;;8.10;5.68;;;;;;;;;;5013274;28;21023;-80
2023/03/17 03:29:26;;;;;;;6.72;5.13;;;;;;;;;;4993189;28;20041;-81
2023/03/17 03:31:53;;;;;;;6.25;4.85;;;;;;;;;;5011281;28;20042;-81
2023/03/17 03:34:19;;;;;;;9.57;5.22;;;;;;;;;;4998056;28;20038;-81
2023/03/17 03:36:45;;;;;;;7.85;5.00;;;;;;;;;;5015610;28;22310;-81
2023/03/17 03:39:12;;;;;;;8.20;5.38;;;;;;;;;;5017358;28;20038;-81
2023/03/17 03:41:38;;;;;;;6.78;5.13;;;;;;;;;;5009491;28;20045;-81
2023/03/17 03:44:04;;;;;;;4.95;4.45;;;;;;;;;;5021894;28;20043;-81
2023/03/17 03:46:30;;;;;;;9.77;5.53;;;;;;;;;;5003821;28;20072;-82
2023/03/17 03:48:56;;;;;;;6.75;5.35;;;;;;;;;;5006779;28;20058;-81
2023/03/17 03:51:22;;;;;;;8.18;4.90;;;;;;;;;;5019727;28;20040;-81
2023/03/17 03:53:49;;;;;;;8.23;5.32;;;;;;;;;;5003061;28;20088;-81
2023/03/17 03:56:15;;;;;;;6.18;4.97;;;;;;;;;;5020764;28;20520;-81
2023/03/17 03:58:41;;;;;;;7.10;5.35;;;;;;;;;;5016908;28;21689;-81
2023/03/17 04:01:08;;;;;;;6.05;5.30;;;;;;;;;;4999955;28;20049;-81
2023/03/17 04:03:35;;;;;;;11.38;5.55;;;;;;;;;;5018127;28;20053;-81
2023/03/17 04:06:02;;;;;;;6.38;5.47;;;;;;;;;;5005066;28;20045;-81
2023/03/17 04:08:28;;;;;;;6.13;4.85;;;;;;;;;;5003234;28;20048;-81
2023/03/17 04:10:54;;;;;;;6.53;5.03;;;;;;;;;;5003810;28;20533;-81
2023/03/17 04:13:21;;;;;;;8.40;5.68;;;;;;;;;;5017609;28;20041;-81
2023/03/17 04:15:47;;;;;;;5.53;4.43;;;;;;;;;;5004958;28;20065;-81
2023/03/17 04:18:13;;;;;;;8.30;5.43;;;;;;;;;;5007882;28;20033;-81
2023/03/17 04:20:39;;;;;;;6.40;5.38;;;;;;;;;;5014376;28;20052;-81
2023/03/17 04:23:05;;;;;;;8.32;5.05;;;;;;;;;;4991552;28;20041;-81
2023/03/17 04:25:32;;;;;;;8.30;5.15;;;;;;;;;;5006573;28;20049;-81
2023/03/17 04:27:58;;;;;;;6.07;5.22;;;;;;;;;;5004425;28;20548;-81
2023/03/17 04:30:24;;;;;;;6.43;4.50;;;;;;;;;;4994811;28;20037;-81
2023/03/17 04:32:50;;;;;;;5.78;4.75;;;;;;;;;;5013089;28;20040;-81
2023/03/17 04:35:20;;;;;;;7.35;5.05;;;;;;;;;;4987737;28;20147;-81
2023/03/17 04:37:47;;;;;;;7.40;5.50;;;;;;;;;;5001959;28;20040;-81
2023/03/17 04:40:14;;;;;;;8.18;5.30;;;;;;;;;;5000446;28;20068;-81
2023/03/17 04:42:41;;;;;;;6.45;4.72;;;;;;;;;;4999313;28;20041;-81
2023/03/17 04:45:08;;;;;;;5.65;4.57;;;;;;;;;;5003475;28;20467;-82
2023/03/17 04:47:34;;;;;;;8.55;4.85;;;;;;;;;;5017212;28;20069;-81
2023/03/17 04:50:01;;;;;;;5.70;4.43;;;;;;;;;;5011334;28;20045;-81
2023/03/17 04:52:27;;;;;;;6.97;4.80;;;;;;;;;;5017005;28;20048;-80
2023/03/17 04:54:54;;;;;;;5.40;4.75;;;;;;;;;;5009607;28;20050;-79
2023/03/17 04:57:21;;;;;;;8.00;4.70;;;;;;;;;;4994240;28;20056;-81
2023/03/17 04:59:47;;;;;;;7.10;4.82;;;;;;;;;;4996509;28;20044;-82
2023/03/17 05:02:13;;;;;;;8.43;5.13;;;;;;;;;;4981814;28;20045;-81
2023/03/17 05:04:39;;;;;;;6.72;4.70;;;;;;;;;;4986509;28;20137;-81
2023/03/17 05:07:05;;;;;;;8.32;5.03;;;;;;;;;;4996900;28;20528;-81
2023/03/17 05:09:31;;;;;;;5.82;4.68;;;;;;;;;;4983510;28;20117;-82
2023/03/17 05:11:57;;;;;;;6.97;4.78;;;;;;;;;;4999024;28;21145;-81
2023/03/17 05:14:24;;;;;;;5.05;4.50;;;;;;;;;;4981823;28;20099;-81
2023/03/17 05:16:50;;;;;;;6.28;4.47;;;;;;;;;;4999246;28;20122;-82
2023/03/17 05:19:17;;;;;;;7.15;4.75;;;;;;;;;;5016955;28;20086;-82
2023/03/17 05:21:43;;;;;;;6.53;5.20;;;;;;;;;;4991428;28;20045;-81
2023/03/17 05:24:09;;;;;;;5.95;5.10;;;;;;;;;;5013470;28;20045;-82
2023/03/17 05:26:36;;;;;;;6.13;4.82;;;;;;;;;;5010336;28;20041;-82
2023/03/17 05:29:02;;;;;;;6.97;5.10;;;;;;;;;;5001060;28;20553;-82
2023/03/17 05:31:28;;;;;;;7.72;4.50;;;;;;;;;;5018610;28;20696;-81
2023/03/17 05:33:55;;;;;;;5.63;4.78;;;;;;;;;;5014938;28;20673;-80
2023/03/17 05:36:21;;;;;;;6.10;4.72;;;;;;;;;;5017180;28;20049;-81
2023/03/17 05:38:53;;;;;;;6.78;4.28;;;;;;;;;;5002918;28;20131;-82
2023/03/17 05:41:19;;;;;;;9.35;4.45;;;;;;;;;;4992988;28;20053;-80
2023/03/17 05:43:45;;;;;;;5.65;4.50;;;;;;;;;;5004316;28;20413;-81
2023/03/17 05:46:11;;;;;;;7.22;4.65;;;;;;;;;;4997415;28;20635;-80
2023/03/17 05:48:37;;;;;;;6.18;4.60;;;;;;;;;;5014437;28;20041;-81
2023/03/17 05:51:04;;;;;;;6.88;4.90;;;;;;;;;;5022691;28;20094;-81
2023/03/17 05:53:30;;;;;;;5.95;4.30;;;;;;;;;;5001209;28;20057;-81
2023/03/17 05:55:56;;;;;;;11.27;4.75;;;;;;;;;;5001283;28;20041;-81
2023/03/17 05:58:22;;;;;;;6.65;4.88;;;;;;;;;;4998400;28;20046;-81
2023/03/17 06:00:48;;;;;;;7.43;4.32;;;;;;;;;;4995325;28;20052;-81
2023/03/17 06:03:15;;;;;;;6.97;4.88;;;;;;;;;;4986091;28;21005;-80
2023/03/17 06:05:41;;;;;;;7.05;5.05;;;;;;;;;;4993467;28;20128;-81
2023/03/17 06:08:07;;;;;;;6.10;4.38;;;;;;;;;;5008219;28;20132;-83
2023/03/17 06:10:33;;;;;;;5.00;4.50;;;;;;;;;;5014691;28;21944;-83
2023/03/17 06:13:00;;;;;;;8.15;4.60;;;;;;;;;;5006463;28;20044;-82
2023/03/17 06:15:27;;;;;;;6.63;4.72;;;;;;;;;;5004972;28;20052;-82
2023/03/17 06:17:53;;;;;;;6.30;4.45;;;;;;;;;;5001685;28;20283;-83
2023/03/17 06:20:19;;;;;;;7.82;4.65;;;;;;;;;;4994096;28;20059;-83
2023/03/17 06:22:46;;;;;;;7.78;4.60;;;;;;;;;;5002295;28;20500;-81
2023/03/17 06:25:12;;;;;;;10.18;4.82;;;;;;;;;;4998633;28;20910;-81
2023/03/17 06:27:39;;;;;;;5.10;4.25;;;;;;;;;;5036527;28;20041;-80
2023/03/17 06:30:07;;;;;;;7.47;5.10;;;;;;;;;;5008560;28;20048;-81
2023/03/17 06:32:34;;;;;;;5.78;4.90;;;;;;;;;;5001857;28;20045;-80
2023/03/17 06:35:00;;;;;;;4.97;4.40;;;;;;;;;;5010676;28;20045;-81
2023/03/17 06:37:26;;;;;;;6.85;4.55;;;;;;;;;;5007669;28;20045;-82
2023/03/17 06:39:52;;;;;;;5.03;3.85;;;;;;;;;;4998946;28;20080;-81
2023/03/17 06:42:18;;;;;;;6.13;4.57;;;;;;;;;;4985033;28;20051;-81
2023/03/17 06:44:44;;;;;;;20.85;4.65;;;;;;;;;;4981944;28;20053;-83
2023/03/17 06:47:11;;;;;;;6.53;4.10;;;;;;;;;;5015533;28;20048;-82
2023/03/17 06:49:37;;;;;;;6.65;4.20;;;;;;;;;;5003558;28;20219;-82
2023/03/17 06:52:03;;;;;;;6.80;4.03;;;;;;;;;;5009023;28;20048;-82
2023/03/17 06:54:29;;;;;;;7.88;4.13;;;;;;;;;;5012854;28;20053;-83
2023/03/17 06:56:56;;;;;;;6.25;3.53;;;;;;;;;;5027523;28;20120;-83
2023/03/17 06:59:22;;;;;;;5.82;3.90;;;;;;;;;;5006490;28;22069;-83
2023/03/17 07:01:48;;;;;;;4.88;3.75;;;;;;;;;;4991328;28;20069;-81
2023/03/17 07:04:15;;;;;;;6.40;4.00;;;;;;;;;;5006427;28;20045;-82
2023/03/17 07:06:41;;;;;;;8.50;4.15;;;;;;;;;;5019228;28;20065;-82
2023/03/17 07:09:08;;;;;;;6.82;4.72;;;;;;;;;;5004453;28;20038;-81
2023/03/17 07:11:38;;;;;;;7.47;4.18;;;;;;;;;;5028684;28;20033;-82
2023/03/17 07:14:05;;;;;;;8.10;4.15;;;;;;;;;;5024726;28;22078;-82
2023/03/17 07:16:31;;;;;;;7.65;3.78;;;;;;;;;;5009993;28;20065;-81
2023/03/17 07:18:58;;;;;;;4.10;3.70;;;;;;;;;;4991846;28;20052;-81
2023/03/17 07:21:24;;;;;;;4.88;3.80;;;;;;;;;;5000869;28;20060;-82
2023/03/17 07:23:51;;;;;;;7.88;4.47;;;;;;;;;;5019476;28;20041;-81
2023/03/17 07:26:17;;;;;;;9.57;4.05;;;;;;;;;;5003425;28;20127;-81
2023/03/17 07:28:43;;;;;;;10.65;4.72;;;;;;;;;;5000928;28;20889;-82
2023/03/17 07:31:12;;;;;;;6.55;3.67;;;;;;;;;;5008850;28;20135;-81
2023/03/17 07:33:39;;;;;;;9.48;4.35;;;;;;;;;;5016319;28;20041;-81
2023/03/17 07:36:06;;;;;;;4.95;3.70;;;;;;;;;;4990379;28;20041;-82
2023/03/17 07:38:32;;;;;;;5.53;4.10;;;;;;;;;;5016727;28;20080;-81
2023/03/17 07:40:58;;;;;;;6.25;3.67;;;;;;;;;;5024778;28;20409;-82
2023/03/17 07:43:25;;;;;;;6.03;3.70;;;;;;;;;;5014686;28;20037;-81
2023/03/17 07:45:51;;;;;;;7.03;3.95;;;;;;;;;;5014814;28;20037;-84
2023/03/17 07:48:18;;;;;;;7.57;4.47;;;;;;;;;;5042537;28;20056;-83
2023/03/17 07:50:44;;;;;;;3.72;3.20;;;;;;;;;;5020165;28;22054;-83
2023/03/17 07:53:11;;;;;;;4.55;3.25;;;;;;;;;;5019105;28;20041;-83
2023/03/17 07:55:40;;;;;;;6.68;3.88;;;;;;;;;;5010954;28;20049;-82
2023/03/17 07:58:06;;;;;;;4.85;3.35;;;;;;;;;;5005781;28;20045;-82
2023/03/17 08:00:33;;;;;;;6.22;3.78;;;;;;;;;;5007592;28;20177;-83
2023/03/17 08:02:59;;;;;;;6.20;3.50;;;;;;;;;;5001398;28;20040;-82
2023/03/17 08:05:26;;;;;;;4.60;3.90;;;;;;;;;;5002459;28;20124;-83
2023/03/17 08:07:53;;;;;;;5.90;3.53;;;;;;;;;;5033384;28;20042;-83
2023/03/17 08:10:19;;;;;;;5.65;3.63;;;;;;;;;;5001885;28;20140;-83
2023/03/17 08:12:50;;;;;;;8.90;3.78;;;;;;;;;;5018721;28;20080;-84
2023/03/17 08:15:16;;;;;;;4.65;3.40;;;;;;;;;;4994533;28;20094;-83
2023/03/17 08:17:42;;;;;;;6.72;4.15;;;;;;;;;;5024348;28;20105;-84
2023/03/17 08:20:10;;;;;;;5.63;3.47;;;;;;;;;;5018661;28;21191;-83
2023/03/17 08:22:36;;;;;;;7.53;3.40;;;;;;;;;;5005765;28;20080;-83
2023/03/17 08:25:02;;;;;;;5.32;3.72;;;;;;;;;;5009221;28;20099;-82
2023/03/17 08:27:28;;;;;;;5.60;4.43;;;;;;;;;;5007168;28;20041;-84
2023/03/17 08:29:57;;;;;;;5.78;3.33;;;;;;;;;;5024102;28;20059;-84
2023/03/17 08:32:23;;;;;;;4.63;3.60;;;;;;;;;;5022545;28;20037;-84
2023/03/17 08:34:53;;;;;;;5.22;3.80;;;;;;;;;;5016768;28;20045;-84
2023/03/17 08:37:19;;;;;;;4.85;3.70;;;;;;;;;;5023719;28;20040;-83
2023/03/17 08:39:45;;;;;;;4.57;3.72;;;;;;;;;;5009271;28;20053;-82
2023/03/17 08:42:11;;;;;;;6.65;3.90;;;;;;;;;;5006278;28;20040;-84
2023/03/17 08:44:37;;;;;;;5.07;3.67;;;;;;;;;;4991303;28;20033;-83
2023/03/17 08:47:04;;;;;;;5.18;3.45;;;;;;;;;;5007289;28;20036;-83
2023/03/17 08:49:33;;;;;;;7.63;3.85;;;;;;;;;;4988566;28;20037;-81
2023/03/17 08:52:01;;;;;;;6.28;3.47;;;;;;;;;;5024967;28;20060;-83
2023/03/17 08:54:27;;;;;;;4.63;3.50;;;;;;;;;;5026669;28;20045;-81
2023/03/17 08:56:53;;;;;;;8.52;4.00;;;;;;;;;;5008518;28;20048;-82
2023/03/17 08:59:19;;;;;;;5.68;3.58;;;;;;;;;;4999433;28;20040;-83
2023/03/17 09:01:45;;;;;;;4.68;3.83;;;;;;;;;;5029941;28;20465;-83
2023/03/17 09:04:12;;;;;;;6.82;3.67;;;;;;;;;;5010801;28;20099;-82
2023/03/17 09:06:38;;;;;;;5.30;3.42;;;;;;;;;;4991898;28;20104;-82
2023/03/17 09:09:05;;;;;;;6.15;3.58;;;;;;;;;;5011912;28;20049;-82
2023/03/17 09:11:32;;;;;;;7.22;3.22;;;;;;;;;;5023930;28;20057;-82
2023/03/17 09:13:58;;;;;;;4.47;3.38;;;;;;;;;;5005220;28;20046;-82
2023/03/17 09:16:25;;;;;;;6.20;3.25;;;;;;;;;;5021039;28;20041;-82
2023/03/17 09:18:52;;;;;;;5.05;3.45;;;;;;;;;;5003838;28;20375;-82
2023/03/17 09:21:18;;;;;;;5.15;3.22;;;;;;;;;;5006292;28;20045;-82
2023/03/17 09:23:45;;;;;;;6.45;3.63;;;;;;;;;;5008939;28;20048;-83
2023/03/17 09:26:11;;;;;;;4.38;3.20;;;;;;;;;;4993241;28;20044;-83
2023/03/17 09:28:37;;;;;;;5.28;3.40;;;;;;;;;;4995252;28;20046;-83
2023/03/17 09:31:06;;;;;;;4.78;3.35;;;;;;;;;;5009415;28;20052;-83
2023/03/17 09:33:32;;;;;;;4.10;3.28;;;;;;;;;;5025157;28;20029;-83
2023/03/17 09:35:58;;;;;;;5.13;3.03;;;;;;;;;;5020327;28;20108;-82
2023/03/17 09:38:26;;;;;;;4.05;3.33;;;;;;;;;;5037475;28;20048;-82
2023/03/17 09:40:55;;;;;;;4.10;3.40;;;;;;;;;;5017734;28;20066;-81
2023/03/17 09:43:47;;;;;;;5.03;3.60;;;;;;;;;;5017300;28;20041;-82
2023/03/17 09:46:26;;;;;;;4.95;2.80;;;;;;;;;;5030054;28;22050;-82
2023/03/17 09:48:58;;;;;;;6.03;3.63;;;;;;;;;;5005016;28;20104;-83
2023/03/17 09:51:25;;;;;;;5.65;3.60;;;;;;;;;;5010643;28;20099;-83
2023/03/17 09:53:59;;;;;;;6.63;4.32;;;;;;;;;;5021941;28;20053;-83
2023/03/17 09:56:26;;;;;;;9.48;4.07;;;;;;;;;;5020068;28;20100;-83
2023/03/17 09:58:54;;;;;;;6.80;3.55;;;;;;;;;;5006988;28;20057;-83
2023/03/17 10:01:21;;;;;;;5.55;3.25;;;;;;;;;;5005301;28;20469;-83
2023/03/17 10:03:49;;;;;;;6.93;3.17;;;;;;;;;;5010874;28;20041;-82
2023/03/17 10:06:15;;;;;;;5.10;3.78;;;;;;;;;;5022303;28;20098;-83
2023/03/17 10:09:05;;;;;;;5.05;3.45;;;;;;;;;;5009147;28;20124;-82
2023/03/17 10:11:37;;;;;;;9.50;3.53;;;;;;;;;;5004863;28;20045;-82
2023/03/17 10:14:08;;;;;;;9.35;3.92;;;;;;;;;;5001385;28;20049;-82
2023/03/17 10:16:54;;;;;;;6.20;4.28;;;;;;;;;;5003632;28;20482;-82
2023/03/17 10:19:27;;;;;;;8.13;5.13;;;;;;;;;;5019360;28;21133;-80
2023/03/17 10:21:57;;;;;;;5.57;3.43;;;;;;;;;;5013012;28;20056;-82
2023/03/17 10:24:24;;;;;;;7.50;3.63;;;;;;;;;;5017587;28;20302;-81
2023/03/17 10:26:52;;;;;;;6.35;3.78;;;;;;;;;;5024385;28;20087;-81
2023/03/17 10:29:22;;;;;;;4.35;3.53;;;;;;;;;;5019000;28;20041;-82
2023/03/17 10:31:52;;;;;;;5.50;3.47;;;;;;;;;;5009485;28;20482;-82
2023/03/17 10:34:22;;;;;;;8.48;4.53;;;;;;;;;;5026652;28;20056;-81
2023/03/17 10:36:59;;;;;;;4.85;3.47;;;;;;;;;;5005127;28;20079;-81
2023/03/17 10:39:25;;;;;;;6.53;4.03;;;;;;;;;;5011179;28;20041;-82
2023/03/17 10:42:08;;;;;;;5.53;4.05;;;;;;;;;;5026072;28;20144;-80
2023/03/17 10:44:40;;;;;;;6.50;3.65;;;;;;;;;;5011151;28;20068;-81
2023/03/17 10:47:19;;;;;;;5.65;3.72;;;;;;;;;;5021748;28;20056;-81
2023/03/17 10:49:45;;;;;;;7.72;4.00;;;;;;;;;;5013547;28;20057;-81
2023/03/17 10:52:19;;;;;;;4.90;3.97;;;;;;;;;;5021828;28;20103;-81
2023/03/17 10:54:53;;;;;;;6.43;4.32;;;;;;;;;;5006589;28;20053;-81
2023/03/17 10:57:20;;;;;;;14.73;4.25;;;;;;;;;;5007396;28;20048;-82
2023/03/17 10:59:51;;;;;;;9.07;3.95;;;;;;;;;;5023522;28;20854;-82
2023/03/17 11:02:24;;;;;;;7.13;4.00;;;;;;;;;;5010561;28;20604;-81
2023/03/17 11:04:54;;;;;;;12.87;4.00;;;;;;;;;;5006870;28;20098;-82
2023/03/17 11:07:26;;;;;;;8.75;4.28;;;;;;;;;;5007627;28;20068;-80
2023/03/17 11:09:56;;;;;;;6.05;4.07;;;;;;;;;;5032866;28;20025;-82
2023/03/17 11:12:27;;;;;;;6.55;4.18;;;;;;;;;;5029141;28;20541;-81
2023/03/17 11:14:58;;;;;;;5.60;4.47;;;;;;;;;;5021853;28;20041;-81
2023/03/17 11:17:33;;;;;;;9.23;4.32;;;;;;;;;;5035014;28;20069;-83
2023/03/17 11:20:12;;;;;;;5.55;4.00;;;;;;;;;;5033181;28;20521;-84
2023/03/17 11:22:45;;;;;;;7.97;4.13;;;;;;;;;;5014940;28;20487;-82
2023/03/17 11:25:22;;;;;;;5.40;3.88;;;;;;;;;;5016440;28;20042;-83
2023/03/17 11:27:54;;;;;;;6.50;4.20;;;;;;;;;;5019851;28;20055;-84
2023/03/17 11:30:35;;;;;;;6.57;4.45;;;;;;;;;;5028412;28;20048;-84
2023/03/17 11:33:01;;;;;;;5.10;3.92;;;;;;;;;;5010991;28;20094;-83
2023/03/17 11:35:47;;;;;;;6.60;4.57;;;;;;;;;;5013423;28;20041;-84
2023/03/17 11:38:18;;;;;;;7.32;4.30;;;;;;;;;;5014673;28;20060;-84
2023/03/17 11:41:04;;;;;;;6.03;4.15;;;;;;;;;;5010450;28;20127;-82
2023/03/17 11:43:37;;;;;;;6.70;4.50;;;;;;;;;;5015109;28;20052;-83
2023/03/17 11:46:18;;;;;;;8.25;5.05;;;;;;;;;;5022907;28;20140;-84
2023/03/17 11:48:44;;;;;;;6.72;4.78;;;;;;;;;;5020549;28;20049;-84
2023/03/17 11:51:14;;;;;;;8.15;4.80;;;;;;;;;;5007289;28;20037;-82
2023/03/17 11:53:55;;;;;;;9.35;4.90;;;;;;;;;;5019021;28;20058;-81
2023/03/17 11:56:29;;;;;;;9.80;4.90;;;;;;;;;;5016605;28;20077;-81
2023/03/17 11:59:00;;;;;;;6.70;4.82;;;;;;;;;;5024630;28;20172;-81
2023/03/17 12:01:31;;;;;;;7.35;5.25;;;;;;;;;;5024400;28;20045;-81
2023/03/17 12:04:09;;;;;;;6.70;4.65;;;;;;;;;;5010423;28;20029;-82
2023/03/17 12:06:43;;;;;;;8.75;5.03;;;;;;;;;;5013779;28;20474;-83
2023/03/17 12:09:12;;;;;;;11.90;5.15;;;;;;;;;;5009758;28;20052;-82
2023/03/17 12:11:40;;;;;;;11.02;4.75;;;;;;;;;;5024278;28;20118;-81
2023/03/17 12:14:13;;;;;;;9.77;4.88;;;;;;;;;;5022953;28;20523;-82
2023/03/17 12:17:15;;;;;;;7.97;4.67;;;;;;;;;;5025893;28;20045;-80
2023/03/17 12:19:59;;;;;;;8.73;4.80;;;;;;;;;;4994443;28;20045;-81
2023/03/17 12:22:29;;;;;;;6.55;4.68;;;;;;;;;;5003249;28;20168;-81
2023/03/17 12:25:04;;;;;;;6.20;4.88;;;;;;;;;;5011452;28;20097;-81
2023/03/17 12:27:41;;;;;;;8.20;4.40;;;;;;;;;;5003653;28;20105;-79
2023/03/17 12:30:26;;;;;;;6.25;4.53;;;;;;;;;;5004893;28;20045;-80
2023/03/17 12:32:57;;;;;;;8.60;5.07;;;;;;;;;;5002607;28;20044;-81
2023/03/17 12:35:25;;;;;;;8.10;4.95;;;;;;;;;;5005272;28;20052;-80
2023/03/17 12:37:51;;;;;;;5.97;4.85;;;;;;;;;;5014278;28;20053;-82
2023/03/17 12:40:21;;;;;;;6.80;4.88;;;;;;;;;;5005092;28;20052;-82
2023/03/17 12:42:52;;;;;;;9.25;5.10;;;;;;;;;;5003457;28;20176;-81
2023/03/17 12:45:25;;;;;;;8.85;4.93;;;;;;;;;;5007587;28;20040;-81
2023/03/17 12:47:54;;;;;;;5.90;4.70;;;;;;;;;;5025934;28;20037;-82
2023/03/17 12:50:50;;;;;;;6.75;4.97;;;;;;;;;;5031638;28;20517;-81
2023/03/17 12:53:25;;;;;;;8.55;5.00;;;;;;;;;;5012617;28;20048;-81
2023/03/17 12:55:52;;;;;;;7.97;4.78;;;;;;;;;;5014016;28;20041;-79
2023/03/17 12:58:25;;;;;;;8.32;5.75;;;;;;;;;;5029444;28;20088;-81
2023/03/17 13:00:56;;;;;;;10.50;5.78;;;;;;;;;;5011793;28;20063;-81
2023/03/17 13:03:22;;;;;;;9.25;5.45;;;;;;;;;;5010747;28;20137;-82
2023/03/17 13:05:50;;;;;;;6.50;5.22;;;;;;;;;;5026128;28;20044;-82
2023/03/17 13:08:30;;;;;;;11.27;5.03;;;;;;;;;;5007732;28;20060;-82
2023/03/17 13:11:17;;;;;;;13.63;6.15;;;;;;;;;;5027993;28;20375;-81
2023/03/17 13:13:49;;;;;;;10.00;5.85;;;;;;;;;;5027080;28;20120;-81
2023/03/17 13:16:27;;;;;;;16.77;5.70;;;;;;;;;;5023920;28;20032;-82
2023/03/17 13:19:12;;;;;;;8.63;5.63;;;;;;;;;;5008432;28;20203;-82
2023/03/17 13:21:38;;;;;;;19.77;6.22;;;;;;;;;;5009437;28;20080;-82
2023/03/17 13:24:30;;;;;;;9.40;5.80;;;;;;;;;;5007232;28;20053;-82
2023/03/17 13:26:58;;;;;;;30.98;7.15;;;;;;;;;;5003870;28;22126;-82
2023/03/17 13:29:34;;;;;;;22.35;6.20;;;;;;;;;;5001384;28;20126;-82
2023/03/17 13:32:18;;;;;;;10.40;6.05;;;;;;;;;;5004085;28;20052;-80
2023/03/17 13:34:52;;;;;;;8.68;5.68;;;;;;;;;;5002250;28;20045;-81
2023/03/17 13:37:30;;;;;;;7.97;6.10;;;;;;;;;;5004609;28;20073;-81
2023/03/17 13:39:56;;;;;;;8.38;6.32;;;;;;;;;;5005929;28;22068;-82
2023/03/17 13:42:35;;;;;;;7.43;6.18;;;;;;;;;;5003580;28;20092;-80
2023/03/17 13:45:01;;;;;;;9.00;5.80;;;;;;;;;;5005611;28;20045;-82
2023/03/17 13:47:33;;;;;;;11.90;6.50;;;;;;;;;;5003520;28;20129;-81
2023/03/17 13:50:02;;;;;;;12.82;6.78;;;;;;;;;;5025033;28;20056;-81
2023/03/17 13:52:33;;;;;;;7.95;6.07;;;;;;;;;;5008939;28;20103;-82
2023/03/17 13:55:05;;;;;;;9.90;6.18;;;;;;;;;;5006506;28;21062;-82
2023/03/17 13:57:36;;;;;;;16.23;6.75;;;;;;;;;;5009883;28;20072;-80
2023/03/17 14:00:14;;;;;;;12.23;6.88;;;;;;;;;;5018421;28;20072;-80
2023/03/17 14:02:40;;;;;;;11.10;5.97;;;;;;;;;;5011951;28;20103;-81
2023/03/17 14:05:08;;;;;;;12.35;7.15;;;;;;;;;;5006478;28;20086;-82
2023/03/17 14:07:46;;;;;;;10.40;7.03;;;;;;;;;;5020697;28;20520;-81
2023/03/17 14:10:16;;;;;;;9.65;6.70;;;;;;;;;;5007221;28;20069;-81
2023/03/17 14:12:46;;;;;;;11.23;7.03;;;;;;;;;;5007230;28;20044;-81
2023/03/17 14:15:24;;;;;;;12.68;7.10;;;;;;;;;;5020755;28;20041;-80
2023/03/17 14:17:53;;;;;;;10.95;6.85;;;;;;;;;;5011385;28;20049;-79
2023/03/17 14:20:23;;;;;;;10.13;6.90;;;;;;;;;;5016533;28;20049;-80
2023/03/17 14:22:55;;;;;;;11.82;7.07;;;;;;;;;;5005022;28;20037;-81
2023/03/17 14:25:25;;;;;;;8.27;6.63;;;;;;;;;;5010190;28;20049;-80
2023/03/17 14:27:52;;;;;;;11.05;6.93;;;;;;;;;;5013104;28;20044;-80
2023/03/17 14:30:24;;;;;;;17.48;9.13;;;;;;;;;;5015448;28;20033;-80
2023/03/17 14:33:12;;;;;;;11.25;6.85;;;;;;;;;;5010396;28;20048;-79
2023/03/17 14:35:41;;;;;;;12.88;6.97;;;;;;;;;;5005836;28;20049;-81
2023/03/17 14:38:24;;;;;;;11.70;6.57;;;;;;;;;;5004399;28;21051;-81
2023/03/17 14:40:59;;;;;;;11.07;7.30;;;;;;;;;;5007810;28;20083;-84
2023/03/17 14:43:25;;;;;;;11.13;7.18;;;;;;;;;;5009921;28;20061;-81
2023/03/17 14:45:52;;;;;;;8.98;6.53;;;;;;;;;;4994855;28;20049;-82
2023/03/17 14:48:37;;;;;;;11.30;7.82;;;;;;;;;;5021654;28;20499;-81
2023/03/17 14:51:06;;;;;;;11.63;7.82;;;;;;;;;;5023461;28;20983;-81